sensor_id;sensor_type;location;lat;lon;timestamp;P1;durP1;ratioP1;P2;durP2;ratioP2
75154;SDS011;63735;44.730;37.818;2023-09-08T00:02:00;5.75;;;2.30;;
75154;SDS011;63735;44.730;37.818;2023-09-08T00:04:26;6.13;;;2.10;;
75154;SDS011;63735;44.730;37.818;2023-09-08T00:06:52;5.57;;;2.30;;
75154;SDS011;63735;44.730;37.818;2023-09-08T00:09:18;4.15;;;2.42;;
75154;SDS011;63735;44.730;37.818;2023-09-08T00:11:44;9.50;;;2.22;;
75154;SDS011;63735;44.730;37.818;2023-09-08T00:14:10;5.55;;;1.85;;
75154;SDS011;63735;44.730;37.818;2023-09-08T00:16:35;4.82;;;1.70;;
75154;SDS011;63735;44.730;37.818;2023-09-08T00:19:02;3.42;;;1.83;;
75154;SDS011;63735;44.730;37.818;2023-09-08T00:21:28;5.50;;;2.05;;
75154;SDS011;63735;44.730;37.818;2023-09-08T00:23:54;6.15;;;2.00;;
75154;SDS011;63735;44.730;37.818;2023-09-08T00:26:20;12.02;;;2.08;;
75154;SDS011;63735;44.730;37.818;2023-09-08T00:28:47;7.30;;;1.58;;
75154;SDS011;63735;44.730;37.818;2023-09-08T00:31:13;6.18;;;1.90;;
75154;SDS011;63735;44.730;37.818;2023-09-08T00:33:39;4.32;;;1.52;;
75154;SDS011;63735;44.730;37.818;2023-09-08T00:36:06;5.32;;;1.73;;
75154;SDS011;63735;44.730;37.818;2023-09-08T00:38:32;7.30;;;1.60;;
75154;SDS011;63735;44.730;37.818;2023-09-08T00:40:58;6.20;;;1.77;;
75154;SDS011;63735;44.730;37.818;2023-09-08T00:43:26;5.75;;;2.08;;
75154;SDS011;63735;44.730;37.818;2023-09-08T00:45:52;5.20;;;1.48;;
75154;SDS011;63735;44.730;37.818;2023-09-08T00:48:20;2.60;;;1.65;;
75154;SDS011;63735;44.730;37.818;2023-09-08T00:50:46;4.95;;;1.73;;
75154;SDS011;63735;44.730;37.818;2023-09-08T00:53:13;5.50;;;1.50;;
75154;SDS011;63735;44.730;37.818;2023-09-08T00:55:39;3.50;;;1.90;;
75154;SDS011;63735;44.730;37.818;2023-09-08T00:58:06;3.25;;;1.48;;
75154;SDS011;63735;44.730;37.818;2023-09-08T01:00:32;3.08;;;1.20;;
75154;SDS011;63735;44.730;37.818;2023-09-08T01:02:58;5.40;;;1.52;;
75154;SDS011;63735;44.730;37.818;2023-09-08T01:05:25;3.88;;;1.55;;
75154;SDS011;63735;44.730;37.818;2023-09-08T01:07:51;4.68;;;1.40;;
75154;SDS011;63735;44.730;37.818;2023-09-08T01:10:18;4.00;;;1.45;;
75154;SDS011;63735;44.730;37.818;2023-09-08T01:12:44;2.65;;;1.50;;
75154;SDS011;63735;44.730;37.818;2023-09-08T01:15:11;3.83;;;1.48;;
75154;SDS011;63735;44.730;37.818;2023-09-08T01:17:37;2.67;;;1.05;;
75154;SDS011;63735;44.730;37.818;2023-09-08T01:20:06;5.35;;;1.58;;
75154;SDS011;63735;44.730;37.818;2023-09-08T01:23:06;5.43;;;1.30;;
75154;SDS011;63735;44.730;37.818;2023-09-08T01:26:07;4.28;;;1.27;;
75154;SDS011;63735;44.730;37.818;2023-09-08T01:28:35;5.85;;;1.50;;
75154;SDS011;63735;44.730;37.818;2023-09-08T01:31:04;4.47;;;1.40;;
75154;SDS011;63735;44.730;37.818;2023-09-08T01:33:30;3.50;;;1.05;;
75154;SDS011;63735;44.730;37.818;2023-09-08T01:35:56;2.78;;;1.08;;
75154;SDS011;63735;44.730;37.818;2023-09-08T01:38:24;6.03;;;1.27;;
75154;SDS011;63735;44.730;37.818;2023-09-08T01:40:51;5.53;;;1.27;;
75154;SDS011;63735;44.730;37.818;2023-09-08T01:43:17;3.42;;;1.20;;
75154;SDS011;63735;44.730;37.818;2023-09-08T01:45:44;3.50;;;0.93;;
75154;SDS011;63735;44.730;37.818;2023-09-08T01:48:10;3.40;;;1.30;;
75154;SDS011;63735;44.730;37.818;2023-09-08T01:50:36;5.03;;;1.05;;
75154;SDS011;63735;44.730;37.818;2023-09-08T01:53:02;3.22;;;1.00;;
75154;SDS011;63735;44.730;37.818;2023-09-08T01:55:27;8.25;;;1.50;;
75154;SDS011;63735;44.730;37.818;2023-09-08T01:57:55;4.15;;;1.10;;
75154;SDS011;63735;44.730;37.818;2023-09-08T02:00:21;2.78;;;1.20;;
75154;SDS011;63735;44.730;37.818;2023-09-08T02:02:47;6.30;;;1.23;;
75154;SDS011;63735;44.730;37.818;2023-09-08T02:05:14;6.13;;;1.00;;
75154;SDS011;63735;44.730;37.818;2023-09-08T02:10:06;3.95;;;1.13;;
75154;SDS011;63735;44.730;37.818;2023-09-08T02:12:33;4.10;;;0.82;;
75154;SDS011;63735;44.730;37.818;2023-09-08T02:14:58;3.55;;;0.93;;
75154;SDS011;63735;44.730;37.818;2023-09-08T02:17:25;2.78;;;0.85;;
75154;SDS011;63735;44.730;37.818;2023-09-08T02:19:51;5.13;;;1.13;;
75154;SDS011;63735;44.730;37.818;2023-09-08T02:22:17;3.65;;;1.08;;
75154;SDS011;63735;44.730;37.818;2023-09-08T02:24:44;6.18;;;1.15;;
75154;SDS011;63735;44.730;37.818;2023-09-08T02:27:10;2.63;;;1.00;;
75154;SDS011;63735;44.730;37.818;2023-09-08T02:29:36;4.88;;;0.90;;
75154;SDS011;63735;44.730;37.818;2023-09-08T02:32:02;2.45;;;0.80;;
75154;SDS011;63735;44.730;37.818;2023-09-08T02:34:28;2.72;;;1.00;;
75154;SDS011;63735;44.730;37.818;2023-09-08T02:36:54;2.90;;;1.10;;
75154;SDS011;63735;44.730;37.818;2023-09-08T02:39:23;4.20;;;1.30;;
75154;SDS011;63735;44.730;37.818;2023-09-08T02:41:52;1.98;;;0.90;;
75154;SDS011;63735;44.730;37.818;2023-09-08T02:44:20;10.63;;;1.30;;
75154;SDS011;63735;44.730;37.818;2023-09-08T02:46:49;1.25;;;0.70;;
75154;SDS011;63735;44.730;37.818;2023-09-08T02:49:15;5.30;;;1.00;;
75154;SDS011;63735;44.730;37.818;2023-09-08T02:51:42;4.40;;;1.10;;
75154;SDS011;63735;44.730;37.818;2023-09-08T02:54:08;6.15;;;1.05;;
75154;SDS011;63735;44.730;37.818;2023-09-08T02:56:34;5.43;;;1.02;;
75154;SDS011;63735;44.730;37.818;2023-09-08T02:59:00;5.53;;;1.13;;
75154;SDS011;63735;44.730;37.818;2023-09-08T03:01:25;10.15;;;1.30;;
75154;SDS011;63735;44.730;37.818;2023-09-08T03:03:51;7.53;;;1.10;;
75154;SDS011;63735;44.730;37.818;2023-09-08T03:06:19;5.68;;;1.55;;
75154;SDS011;63735;44.730;37.818;2023-09-08T03:08:46;8.93;;;1.35;;
75154;SDS011;63735;44.730;37.818;2023-09-08T03:11:12;6.28;;;1.20;;
75154;SDS011;63735;44.730;37.818;2023-09-08T03:13:38;9.23;;;1.00;;
75154;SDS011;63735;44.730;37.818;2023-09-08T03:16:05;13.00;;;1.42;;
75154;SDS011;63735;44.730;37.818;2023-09-08T03:18:35;6.63;;;1.15;;
75154;SDS011;63735;44.730;37.818;2023-09-08T03:21:02;11.13;;;1.30;;
75154;SDS011;63735;44.730;37.818;2023-09-08T03:23:41;9.63;;;1.30;;
75154;SDS011;63735;44.730;37.818;2023-09-08T03:26:08;7.50;;;1.23;;
75154;SDS011;63735;44.730;37.818;2023-09-08T03:28:35;5.13;;;1.10;;
75154;SDS011;63735;44.730;37.818;2023-09-08T03:31:02;7.03;;;1.20;;
75154;SDS011;63735;44.730;37.818;2023-09-08T03:33:30;9.35;;;1.10;;
75154;SDS011;63735;44.730;37.818;2023-09-08T03:35:56;13.00;;;1.52;;
75154;SDS011;63735;44.730;37.818;2023-09-08T03:38:22;6.55;;;1.00;;
75154;SDS011;63735;44.730;37.818;2023-09-08T03:40:49;6.35;;;1.40;;
75154;SDS011;63735;44.730;37.818;2023-09-08T03:43:15;12.63;;;1.50;;
75154;SDS011;63735;44.730;37.818;2023-09-08T03:45:41;11.65;;;1.38;;
75154;SDS011;63735;44.730;37.818;2023-09-08T03:48:08;7.45;;;1.10;;
75154;SDS011;63735;44.730;37.818;2023-09-08T03:50:34;8.10;;;1.10;;
75154;SDS011;63735;44.730;37.818;2023-09-08T03:53:01;5.70;;;1.10;;
75154;SDS011;63735;44.730;37.818;2023-09-08T03:55:28;7.15;;;1.23;;
75154;SDS011;63735;44.730;37.818;2023-09-08T03:57:54;9.68;;;1.60;;
75154;SDS011;63735;44.730;37.818;2023-09-08T04:00:19;22.35;;;1.80;;
75154;SDS011;63735;44.730;37.818;2023-09-08T04:02:48;12.68;;;1.45;;
75154;SDS011;63735;44.730;37.818;2023-09-08T04:05:14;19.25;;;2.25;;
75154;SDS011;63735;44.730;37.818;2023-09-08T04:07:41;10.60;;;1.60;;
75154;SDS011;63735;44.730;37.818;2023-09-08T04:10:08;11.13;;;1.63;;
75154;SDS011;63735;44.730;37.818;2023-09-08T04:12:34;9.63;;;1.33;;
75154;SDS011;63735;44.730;37.818;2023-09-08T04:15:00;22.88;;;1.75;;
75154;SDS011;63735;44.730;37.818;2023-09-08T04:17:26;11.55;;;1.45;;
75154;SDS011;63735;44.730;37.818;2023-09-08T04:19:52;11.32;;;1.20;;
75154;SDS011;63735;44.730;37.818;2023-09-08T04:22:18;11.48;;;1.45;;
75154;SDS011;63735;44.730;37.818;2023-09-08T04:24:44;5.28;;;1.13;;
75154;SDS011;63735;44.730;37.818;2023-09-08T04:27:11;10.63;;;1.55;;
75154;SDS011;63735;44.730;37.818;2023-09-08T04:29:37;14.52;;;1.50;;
75154;SDS011;63735;44.730;37.818;2023-09-08T04:32:03;9.18;;;1.40;;
75154;SDS011;63735;44.730;37.818;2023-09-08T04:34:36;13.02;;;1.30;;
75154;SDS011;63735;44.730;37.818;2023-09-08T04:37:03;7.60;;;1.40;;
75154;SDS011;63735;44.730;37.818;2023-09-08T04:39:29;12.93;;;1.30;;
75154;SDS011;63735;44.730;37.818;2023-09-08T04:41:55;10.07;;;1.35;;
75154;SDS011;63735;44.730;37.818;2023-09-08T04:44:21;3.33;;;1.00;;
75154;SDS011;63735;44.730;37.818;2023-09-08T04:46:47;3.70;;;1.08;;
75154;SDS011;63735;44.730;37.818;2023-09-08T04:49:13;6.20;;;1.20;;
75154;SDS011;63735;44.730;37.818;2023-09-08T04:51:39;4.22;;;1.27;;
75154;SDS011;63735;44.730;37.818;2023-09-08T04:54:05;7.28;;;1.40;;
75154;SDS011;63735;44.730;37.818;2023-09-08T04:56:31;5.97;;;1.45;;
75154;SDS011;63735;44.730;37.818;2023-09-08T04:58:57;8.00;;;1.25;;
75154;SDS011;63735;44.730;37.818;2023-09-08T05:01:26;6.43;;;1.33;;
75154;SDS011;63735;44.730;37.818;2023-09-08T05:03:53;16.17;;;1.33;;
75154;SDS011;63735;44.730;37.818;2023-09-08T05:06:20;6.32;;;1.00;;
75154;SDS011;63735;44.730;37.818;2023-09-08T05:08:46;9.43;;;1.10;;
75154;SDS011;63735;44.730;37.818;2023-09-08T05:11:12;13.45;;;1.27;;
75154;SDS011;63735;44.730;37.818;2023-09-08T05:13:38;4.07;;;1.13;;
75154;SDS011;63735;44.730;37.818;2023-09-08T05:16:04;3.80;;;1.30;;
75154;SDS011;63735;44.730;37.818;2023-09-08T05:18:39;5.57;;;1.30;;
75154;SDS011;63735;44.730;37.818;2023-09-08T05:21:05;8.38;;;0.90;;
75154;SDS011;63735;44.730;37.818;2023-09-08T05:23:32;3.72;;;1.00;;
75154;SDS011;63735;44.730;37.818;2023-09-08T05:25:58;5.72;;;1.55;;
75154;SDS011;63735;44.730;37.818;2023-09-08T05:28:25;2.58;;;1.10;;
75154;SDS011;63735;44.730;37.818;2023-09-08T05:30:51;11.35;;;1.20;;
75154;SDS011;63735;44.730;37.818;2023-09-08T05:33:18;4.45;;;1.02;;
75154;SDS011;63735;44.730;37.818;2023-09-08T05:35:44;3.55;;;1.05;;
75154;SDS011;63735;44.730;37.818;2023-09-08T05:38:10;9.00;;;1.00;;
75154;SDS011;63735;44.730;37.818;2023-09-08T05:40:36;2.70;;;1.00;;
75154;SDS011;63735;44.730;37.818;2023-09-08T05:43:03;3.95;;;1.10;;
75154;SDS011;63735;44.730;37.818;2023-09-08T05:45:31;4.82;;;0.82;;
75154;SDS011;63735;44.730;37.818;2023-09-08T05:47:57;5.10;;;1.40;;
75154;SDS011;63735;44.730;37.818;2023-09-08T05:50:25;2.25;;;1.10;;
75154;SDS011;63735;44.730;37.818;2023-09-08T05:52:53;4.90;;;1.67;;
75154;SDS011;63735;44.730;37.818;2023-09-08T05:55:19;8.02;;;1.48;;
75154;SDS011;63735;44.730;37.818;2023-09-08T05:57:47;7.72;;;1.45;;
75154;SDS011;63735;44.730;37.818;2023-09-08T06:00:13;13.45;;;1.73;;
75154;SDS011;63735;44.730;37.818;2023-09-08T06:02:42;9.23;;;1.30;;
75154;SDS011;63735;44.730;37.818;2023-09-08T06:05:11;9.13;;;1.45;;
75154;SDS011;63735;44.730;37.818;2023-09-08T06:07:38;5.00;;;1.00;;
75154;SDS011;63735;44.730;37.818;2023-09-08T06:10:04;10.98;;;1.15;;
75154;SDS011;63735;44.730;37.818;2023-09-08T06:12:31;6.68;;;1.20;;
75154;SDS011;63735;44.730;37.818;2023-09-08T06:14:57;7.43;;;1.30;;
75154;SDS011;63735;44.730;37.818;2023-09-08T06:17:23;3.70;;;1.17;;
75154;SDS011;63735;44.730;37.818;2023-09-08T06:22:16;6.78;;;1.10;;
75154;SDS011;63735;44.730;37.818;2023-09-08T06:24:42;7.68;;;1.42;;
75154;SDS011;63735;44.730;37.818;2023-09-08T06:27:08;5.43;;;1.30;;
75154;SDS011;63735;44.730;37.818;2023-09-08T06:29:36;21.45;;;1.80;;
75154;SDS011;63735;44.730;37.818;2023-09-08T06:32:03;7.80;;;1.27;;
75154;SDS011;63735;44.730;37.818;2023-09-08T06:34:30;15.68;;;1.40;;
75154;SDS011;63735;44.730;37.818;2023-09-08T06:36:56;8.57;;;1.20;;
75154;SDS011;63735;44.730;37.818;2023-09-08T06:39:24;10.10;;;1.27;;
75154;SDS011;63735;44.730;37.818;2023-09-08T06:41:51;12.50;;;1.50;;
75154;SDS011;63735;44.730;37.818;2023-09-08T06:46:45;16.63;;;1.70;;
75154;SDS011;63735;44.730;37.818;2023-09-08T06:49:11;7.68;;;1.42;;
75154;SDS011;63735;44.730;37.818;2023-09-08T06:51:37;12.75;;;1.50;;
75154;SDS011;63735;44.730;37.818;2023-09-08T06:56:37;9.70;;;1.27;;
75154;SDS011;63735;44.730;37.818;2023-09-08T06:59:04;28.08;;;2.05;;
75154;SDS011;63735;44.730;37.818;2023-09-08T07:01:30;16.38;;;1.15;;
75154;SDS011;63735;44.730;37.818;2023-09-08T07:03:56;24.40;;;2.05;;
75154;SDS011;63735;44.730;37.818;2023-09-08T07:06:22;17.27;;;1.65;;
75154;SDS011;63735;44.730;37.818;2023-09-08T07:08:49;21.23;;;2.10;;
75154;SDS011;63735;44.730;37.818;2023-09-08T07:11:16;50.50;;;3.35;;
75154;SDS011;63735;44.730;37.818;2023-09-08T07:13:43;28.60;;;1.65;;
75154;SDS011;63735;44.730;37.818;2023-09-08T07:16:09;14.95;;;1.45;;
75154;SDS011;63735;44.730;37.818;2023-09-08T07:18:36;15.60;;;1.10;;
75154;SDS011;63735;44.730;37.818;2023-09-08T07:21:05;17.38;;;1.40;;
75154;SDS011;63735;44.730;37.818;2023-09-08T07:23:31;12.18;;;1.10;;
75154;SDS011;63735;44.730;37.818;2023-09-08T07:25:58;9.85;;;1.50;;
75154;SDS011;63735;44.730;37.818;2023-09-08T07:28:28;9.65;;;1.20;;
75154;SDS011;63735;44.730;37.818;2023-09-08T07:31:01;15.75;;;1.65;;
75154;SDS011;63735;44.730;37.818;2023-09-08T07:33:32;30.33;;;2.33;;
75154;SDS011;63735;44.730;37.818;2023-09-08T07:36:03;5.18;;;1.15;;
75154;SDS011;63735;44.730;37.818;2023-09-08T07:38:33;18.92;;;2.40;;
75154;SDS011;63735;44.730;37.818;2023-09-08T07:41:00;22.55;;;1.88;;
75154;SDS011;63735;44.730;37.818;2023-09-08T07:43:27;20.95;;;2.08;;
75154;SDS011;63735;44.730;37.818;2023-09-08T07:48:20;15.70;;;1.65;;
75154;SDS011;63735;44.730;37.818;2023-09-08T07:50:46;19.05;;;1.77;;
75154;SDS011;63735;44.730;37.818;2023-09-08T07:53:12;19.35;;;1.50;;
75154;SDS011;63735;44.730;37.818;2023-09-08T07:55:38;15.93;;;1.60;;
75154;SDS011;63735;44.730;37.818;2023-09-08T07:58:03;15.95;;;1.35;;
75154;SDS011;63735;44.730;37.818;2023-09-08T08:00:30;12.05;;;1.50;;
75154;SDS011;63735;44.730;37.818;2023-09-08T08:02:56;21.73;;;1.70;;
75154;SDS011;63735;44.730;37.818;2023-09-08T08:07:49;24.95;;;2.20;;
75154;SDS011;63735;44.730;37.818;2023-09-08T08:10:15;26.00;;;1.58;;
75154;SDS011;63735;44.730;37.818;2023-09-08T08:12:42;26.92;;;2.10;;
75154;SDS011;63735;44.730;37.818;2023-09-08T08:15:09;11.52;;;1.30;;
75154;SDS011;63735;44.730;37.818;2023-09-08T08:17:36;23.73;;;2.17;;
75154;SDS011;63735;44.730;37.818;2023-09-08T08:20:04;24.05;;;2.03;;
75154;SDS011;63735;44.730;37.818;2023-09-08T08:22:35;28.52;;;2.40;;
75154;SDS011;63735;44.730;37.818;2023-09-08T08:25:02;33.97;;;2.47;;
75154;SDS011;63735;44.730;37.818;2023-09-08T08:27:31;24.10;;;1.73;;
75154;SDS011;63735;44.730;37.818;2023-09-08T08:29:57;8.30;;;1.20;;
75154;SDS011;63735;44.730;37.818;2023-09-08T08:32:28;12.50;;;1.63;;
75154;SDS011;63735;44.730;37.818;2023-09-08T08:34:55;27.98;;;2.15;;
75154;SDS011;63735;44.730;37.818;2023-09-08T08:37:21;29.63;;;1.75;;
75154;SDS011;63735;44.730;37.818;2023-09-08T08:39:46;16.10;;;1.60;;
75154;SDS011;63735;44.730;37.818;2023-09-08T08:42:12;9.90;;;0.90;;
75154;SDS011;63735;44.730;37.818;2023-09-08T08:44:39;12.43;;;1.17;;
75154;SDS011;63735;44.730;37.818;2023-09-08T08:47:06;31.13;;;2.20;;
75154;SDS011;63735;44.730;37.818;2023-09-08T08:49:33;12.80;;;1.13;;
75154;SDS011;63735;44.730;37.818;2023-09-08T08:51:59;5.32;;;1.00;;
75154;SDS011;63735;44.730;37.818;2023-09-08T08:54:29;8.23;;;1.00;;
75154;SDS011;63735;44.730;37.818;2023-09-08T08:56:55;10.07;;;1.33;;
75154;SDS011;63735;44.730;37.818;2023-09-08T08:59:22;11.77;;;1.02;;
75154;SDS011;63735;44.730;37.818;2023-09-08T09:01:48;9.82;;;0.85;;
75154;SDS011;63735;44.730;37.818;2023-09-08T09:04:14;11.75;;;1.30;;
75154;SDS011;63735;44.730;37.818;2023-09-08T09:06:41;6.03;;;0.90;;
75154;SDS011;63735;44.730;37.818;2023-09-08T09:09:07;8.05;;;0.93;;
75154;SDS011;63735;44.730;37.818;2023-09-08T09:11:36;14.48;;;1.45;;
75154;SDS011;63735;44.730;37.818;2023-09-08T09:14:02;8.23;;;1.10;;
75154;SDS011;63735;44.730;37.818;2023-09-08T09:21:24;6.75;;;1.00;;
75154;SDS011;63735;44.730;37.818;2023-09-08T09:24:06;9.10;;;1.10;;
75154;SDS011;63735;44.730;37.818;2023-09-08T09:26:32;8.57;;;0.90;;
75154;SDS011;63735;44.730;37.818;2023-09-08T09:28:58;7.90;;;0.80;;
75154;SDS011;63735;44.730;37.818;2023-09-08T09:31:24;21.30;;;1.10;;
75154;SDS011;63735;44.730;37.818;2023-09-08T09:34:03;19.92;;;1.77;;
75154;SDS011;63735;44.730;37.818;2023-09-08T09:36:30;7.10;;;0.95;;
75154;SDS011;63735;44.730;37.818;2023-09-08T09:39:00;11.38;;;1.27;;
75154;SDS011;63735;44.730;37.818;2023-09-08T09:41:29;9.40;;;1.33;;
75154;SDS011;63735;44.730;37.818;2023-09-08T09:43:56;11.38;;;1.20;;
75154;SDS011;63735;44.730;37.818;2023-09-08T09:46:22;13.23;;;0.98;;
75154;SDS011;63735;44.730;37.818;2023-09-08T09:48:54;19.95;;;1.80;;
75154;SDS011;63735;44.730;37.818;2023-09-08T09:51:22;2.92;;;0.63;;
75154;SDS011;63735;44.730;37.818;2023-09-08T09:53:51;10.32;;;1.15;;
75154;SDS011;63735;44.730;37.818;2023-09-08T09:56:17;4.85;;;0.63;;
75154;SDS011;63735;44.730;37.818;2023-09-08T09:58:43;9.48;;;1.00;;
75154;SDS011;63735;44.730;37.818;2023-09-08T10:01:13;4.90;;;1.02;;
75154;SDS011;63735;44.730;37.818;2023-09-08T10:03:39;9.20;;;1.05;;
75154;SDS011;63735;44.730;37.818;2023-09-08T10:06:06;8.88;;;0.90;;
75154;SDS011;63735;44.730;37.818;2023-09-08T10:08:33;4.72;;;0.70;;
75154;SDS011;63735;44.730;37.818;2023-09-08T10:11:05;14.65;;;1.30;;
75154;SDS011;63735;44.730;37.818;2023-09-08T10:13:39;6.75;;;0.75;;
75154;SDS011;63735;44.730;37.818;2023-09-08T10:16:12;7.40;;;0.90;;
75154;SDS011;63735;44.730;37.818;2023-09-08T10:18:41;6.72;;;1.17;;
75154;SDS011;63735;44.730;37.818;2023-09-08T10:21:11;24.52;;;1.95;;
75154;SDS011;63735;44.730;37.818;2023-09-08T10:23:39;6.30;;;0.80;;
75154;SDS011;63735;44.730;37.818;2023-09-08T10:26:11;7.07;;;0.88;;
75154;SDS011;63735;44.730;37.818;2023-09-08T10:28:38;2.40;;;0.50;;
75154;SDS011;63735;44.730;37.818;2023-09-08T10:31:04;14.65;;;1.15;;
75154;SDS011;63735;44.730;37.818;2023-09-08T10:33:32;2.58;;;0.93;;
75154;SDS011;63735;44.730;37.818;2023-09-08T10:35:58;7.38;;;1.00;;
75154;SDS011;63735;44.730;37.818;2023-09-08T10:38:29;2.92;;;0.80;;
75154;SDS011;63735;44.730;37.818;2023-09-08T10:43:45;4.38;;;0.80;;
75154;SDS011;63735;44.730;37.818;2023-09-08T10:46:21;2.88;;;0.60;;
75154;SDS011;63735;44.730;37.818;2023-09-08T10:48:49;10.48;;;1.25;;
75154;SDS011;63735;44.730;37.818;2023-09-08T10:51:17;5.47;;;0.60;;
75154;SDS011;63735;44.730;37.818;2023-09-08T10:53:46;2.33;;;0.55;;
75154;SDS011;63735;44.730;37.818;2023-09-08T10:56:13;23.48;;;1.30;;
75154;SDS011;63735;44.730;37.818;2023-09-08T10:58:39;4.22;;;0.65;;
75154;SDS011;63735;44.730;37.818;2023-09-08T11:01:12;13.73;;;1.05;;
75154;SDS011;63735;44.730;37.818;2023-09-08T11:06:06;1.35;;;0.50;;
75154;SDS011;63735;44.730;37.818;2023-09-08T11:08:37;8.90;;;1.05;;
75154;SDS011;63735;44.730;37.818;2023-09-08T11:11:06;6.97;;;0.70;;
75154;SDS011;63735;44.730;37.818;2023-09-08T11:13:33;2.53;;;0.57;;
75154;SDS011;63735;44.730;37.818;2023-09-08T11:15:58;8.95;;;0.90;;
75154;SDS011;63735;44.730;37.818;2023-09-08T11:18:27;5.55;;;0.77;;
75154;SDS011;63735;44.730;37.818;2023-09-08T11:20:54;3.58;;;0.90;;
75154;SDS011;63735;44.730;37.818;2023-09-08T11:23:21;3.58;;;0.70;;
75154;SDS011;63735;44.730;37.818;2023-09-08T11:25:48;3.78;;;0.82;;
75154;SDS011;63735;44.730;37.818;2023-09-08T11:28:15;20.60;;;1.65;;
75154;SDS011;63735;44.730;37.818;2023-09-08T11:30:42;4.18;;;0.80;;
75154;SDS011;63735;44.730;37.818;2023-09-08T11:33:14;6.00;;;0.85;;
75154;SDS011;63735;44.730;37.818;2023-09-08T11:35:41;10.02;;;1.10;;
75154;SDS011;63735;44.730;37.818;2023-09-08T11:38:11;5.30;;;0.85;;
75154;SDS011;63735;44.730;37.818;2023-09-08T11:40:37;31.35;;;1.70;;
75154;SDS011;63735;44.730;37.818;2023-09-08T11:43:04;9.38;;;1.60;;
75154;SDS011;63735;44.730;37.818;2023-09-08T11:45:33;9.45;;;1.02;;
75154;SDS011;63735;44.730;37.818;2023-09-08T11:48:00;5.13;;;0.82;;
75154;SDS011;63735;44.730;37.818;2023-09-08T11:50:26;5.88;;;0.77;;
75154;SDS011;63735;44.730;37.818;2023-09-08T11:52:53;12.43;;;0.82;;
75154;SDS011;63735;44.730;37.818;2023-09-08T11:55:20;2.30;;;0.93;;
75154;SDS011;63735;44.730;37.818;2023-09-08T11:57:47;10.35;;;0.77;;
75154;SDS011;63735;44.730;37.818;2023-09-08T12:00:18;6.90;;;0.80;;
75154;SDS011;63735;44.730;37.818;2023-09-08T12:02:48;7.70;;;0.70;;
75154;SDS011;63735;44.730;37.818;2023-09-08T12:05:23;9.65;;;0.90;;
75154;SDS011;63735;44.730;37.818;2023-09-08T12:07:51;6.78;;;0.93;;
75154;SDS011;63735;44.730;37.818;2023-09-08T12:10:18;12.90;;;1.00;;
75154;SDS011;63735;44.730;37.818;2023-09-08T12:17:46;2.05;;;0.50;;
75154;SDS011;63735;44.730;37.818;2023-09-08T12:20:14;5.88;;;0.80;;
75154;SDS011;63735;44.730;37.818;2023-09-08T12:22:47;5.03;;;0.50;;
75154;SDS011;63735;44.730;37.818;2023-09-08T12:25:16;3.95;;;0.70;;
75154;SDS011;63735;44.730;37.818;2023-09-08T12:27:44;7.25;;;1.35;;
75154;SDS011;63735;44.730;37.818;2023-09-08T12:30:16;5.30;;;0.70;;
75154;SDS011;63735;44.730;37.818;2023-09-08T12:32:47;3.53;;;0.50;;
75154;SDS011;63735;44.730;37.818;2023-09-08T12:35:22;5.47;;;0.63;;
75154;SDS011;63735;44.730;37.818;2023-09-08T12:37:58;5.03;;;0.98;;
75154;SDS011;63735;44.730;37.818;2023-09-08T12:40:29;4.18;;;0.93;;
75154;SDS011;63735;44.730;37.818;2023-09-08T12:43:02;4.90;;;1.55;;
75154;SDS011;63735;44.730;37.818;2023-09-08T12:45:28;2.92;;;0.47;;
75154;SDS011;63735;44.730;37.818;2023-09-08T12:47:57;8.10;;;0.95;;
75154;SDS011;63735;44.730;37.818;2023-09-08T12:50:25;7.63;;;0.80;;
75154;SDS011;63735;44.730;37.818;2023-09-08T12:52:51;3.42;;;0.60;;
75154;SDS011;63735;44.730;37.818;2023-09-08T12:55:17;1.63;;;0.47;;
75154;SDS011;63735;44.730;37.818;2023-09-08T12:57:43;11.77;;;0.80;;
75154;SDS011;63735;44.730;37.818;2023-09-08T13:00:09;10.95;;;1.20;;
75154;SDS011;63735;44.730;37.818;2023-09-08T13:05:01;4.53;;;0.60;;
75154;SDS011;63735;44.730;37.818;2023-09-08T13:07:28;3.22;;;0.95;;
75154;SDS011;63735;44.730;37.818;2023-09-08T13:09:54;6.45;;;0.95;;
75154;SDS011;63735;44.730;37.818;2023-09-08T13:12:20;3.97;;;0.70;;
75154;SDS011;63735;44.730;37.818;2023-09-08T13:14:46;4.43;;;0.80;;
75154;SDS011;63735;44.730;37.818;2023-09-08T13:17:13;3.67;;;0.68;;
75154;SDS011;63735;44.730;37.818;2023-09-08T13:19:42;4.50;;;0.50;;
75154;SDS011;63735;44.730;37.818;2023-09-08T13:22:11;1.65;;;0.50;;
75154;SDS011;63735;44.730;37.818;2023-09-08T13:24:37;4.75;;;0.63;;
75154;SDS011;63735;44.730;37.818;2023-09-08T13:27:04;17.15;;;1.52;;
75154;SDS011;63735;44.730;37.818;2023-09-08T13:29:30;3.72;;;0.70;;
75154;SDS011;63735;44.730;37.818;2023-09-08T13:31:56;5.35;;;0.80;;
75154;SDS011;63735;44.730;37.818;2023-09-08T13:34:23;7.40;;;0.73;;
75154;SDS011;63735;44.730;37.818;2023-09-08T13:39:15;1.02;;;0.55;;
75154;SDS011;63735;44.730;37.818;2023-09-08T13:41:53;5.80;;;0.55;;
75154;SDS011;63735;44.730;37.818;2023-09-08T13:44:21;4.35;;;0.63;;
75154;SDS011;63735;44.730;37.818;2023-09-08T13:46:51;10.52;;;1.00;;
75154;SDS011;63735;44.730;37.818;2023-09-08T13:49:19;5.65;;;0.75;;
75154;SDS011;63735;44.730;37.818;2023-09-08T13:51:45;3.85;;;0.90;;
75154;SDS011;63735;44.730;37.818;2023-09-08T13:56:38;7.53;;;1.00;;
75154;SDS011;63735;44.730;37.818;2023-09-08T13:59:08;7.25;;;1.00;;
75154;SDS011;63735;44.730;37.818;2023-09-08T14:04:01;3.00;;;0.68;;
75154;SDS011;63735;44.730;37.818;2023-09-08T14:06:28;13.90;;;1.00;;
75154;SDS011;63735;44.730;37.818;2023-09-08T14:08:55;4.45;;;0.82;;
75154;SDS011;63735;44.730;37.818;2023-09-08T14:11:21;6.63;;;0.98;;
75154;SDS011;63735;44.730;37.818;2023-09-08T14:13:47;5.55;;;0.90;;
75154;SDS011;63735;44.730;37.818;2023-09-08T14:16:14;6.03;;;0.85;;
75154;SDS011;63735;44.730;37.818;2023-09-08T14:18:40;4.53;;;0.60;;
75154;SDS011;63735;44.730;37.818;2023-09-08T14:21:06;5.82;;;0.80;;
75154;SDS011;63735;44.730;37.818;2023-09-08T14:23:32;3.88;;;0.90;;
75154;SDS011;63735;44.730;37.818;2023-09-08T14:26:03;2.35;;;0.88;;
75154;SDS011;63735;44.730;37.818;2023-09-08T14:28:29;9.07;;;1.08;;
75154;SDS011;63735;44.730;37.818;2023-09-08T14:30:57;6.00;;;0.57;;
75154;SDS011;63735;44.730;37.818;2023-09-08T14:33:24;6.03;;;0.77;;
75154;SDS011;63735;44.730;37.818;2023-09-08T14:35:50;10.32;;;0.70;;
75154;SDS011;63735;44.730;37.818;2023-09-08T14:38:20;3.55;;;0.70;;
75154;SDS011;63735;44.730;37.818;2023-09-08T14:40:56;7.70;;;0.98;;
75154;SDS011;63735;44.730;37.818;2023-09-08T14:43:26;6.68;;;0.80;;
75154;SDS011;63735;44.730;37.818;2023-09-08T14:45:54;5.65;;;0.63;;
75154;SDS011;63735;44.730;37.818;2023-09-08T14:48:24;11.00;;;1.00;;
75154;SDS011;63735;44.730;37.818;2023-09-08T14:50:50;2.00;;;0.90;;
75154;SDS011;63735;44.730;37.818;2023-09-08T14:53:16;3.83;;;0.68;;
75154;SDS011;63735;44.730;37.818;2023-09-08T14:55:42;3.53;;;0.55;;
75154;SDS011;63735;44.730;37.818;2023-09-08T14:58:10;2.33;;;0.70;;
75154;SDS011;63735;44.730;37.818;2023-09-08T15:00:38;4.22;;;0.80;;
75154;SDS011;63735;44.730;37.818;2023-09-08T15:03:04;2.50;;;0.60;;
75154;SDS011;63735;44.730;37.818;2023-09-08T15:05:31;6.15;;;0.90;;
75154;SDS011;63735;44.730;37.818;2023-09-08T15:07:58;5.38;;;0.70;;
75154;SDS011;63735;44.730;37.818;2023-09-08T15:10:24;3.78;;;0.68;;
75154;SDS011;63735;44.730;37.818;2023-09-08T15:12:50;5.57;;;0.68;;